Time;durP1;ratioP1;P1;durP2;ratioP2;P2;SDS_P1;SDS_P2;PMS_P1;PMS_P2;Temp;Humidity;BMP_temperature;BMP_pressure;BME280_temperature;BME280_humidity;BME280_pressure;Samples;Min_cycle;Max_cycle;Signal;HPM_P1;HPM_P2
2021/08/10 00:00:53;;;;;;;13.52;3.60;;;16.50;99.90;;;;;;4987813;28;25136;-66
2021/08/10 00:03:19;;;;;;;8.80;3.15;;;16.50;99.90;;;;;;4989839;28;25049;-67
2021/08/10 00:05:48;;;;;;;7.93;3.42;;;16.60;99.90;;;;;;4989852;28;25063;-65
2021/08/10 00:08:18;;;;;;;9.38;3.60;;;16.60;99.90;;;;;;4988958;28;25159;-65
2021/08/10 00:10:44;;;;;;;10.75;3.50;;;16.60;99.90;;;;;;4989806;28;25050;-65
2021/08/10 00:13:11;;;;;;;12.05;3.70;;;16.50;99.90;;;;;;4988217;28;25140;-64
2021/08/10 00:15:38;;;;;;;19.02;3.78;;;16.40;99.90;;;;;;4988674;28;25073;-66
2021/08/10 00:18:04;;;;;;;10.68;3.60;;;16.40;99.90;;;;;;4987555;28;25056;-66
2021/08/10 00:20:30;;;;;;;10.38;3.58;;;16.40;99.90;;;;;;4988792;28;25071;-66
2021/08/10 00:22:57;;;;;;;7.13;3.38;;;16.30;99.90;;;;;;4988633;28;25079;-66
2021/08/10 00:25:22;;;;;;;8.98;3.97;;;16.30;99.90;;;;;;4989382;28;25074;-66
2021/08/10 00:27:48;;;;;;;8.70;3.35;;;16.20;99.90;;;;;;4988707;28;25114;-65
2021/08/10 00:30:13;;;;;;;10.85;3.25;;;16.20;99.90;;;;;;4988049;28;25073;-65
2021/08/10 00:32:40;;;;;;;9.65;3.97;;;16.20;99.90;;;;;;4993026;28;25069;-67
2021/08/10 00:35:07;;;;;;;9.73;3.95;;;16.30;99.90;;;;;;4987124;28;25070;-66
2021/08/10 00:37:33;;;;;;;5.78;3.75;;;16.30;99.90;;;;;;4988751;28;25120;-66
2021/08/10 00:39:59;;;;;;;11.05;3.65;;;16.30;99.90;;;;;;4988385;28;25142;-66
2021/08/10 00:42:24;;;;;;;9.10;3.95;;;16.40;99.90;;;;;;4987904;28;25105;-65
2021/08/10 00:44:50;;;;;;;14.52;3.80;;;16.40;99.90;;;;;;4990479;28;25070;-64
2021/08/10 00:47:15;;;;;;;10.30;3.83;;;16.40;99.90;;;;;;4990551;28;25071;-65
2021/08/10 00:49:41;;;;;;;9.23;4.22;;;16.40;99.90;;;;;;4987758;28;25176;-64
2021/08/10 00:52:07;;;;;;;19.58;5.30;;;16.30;99.90;;;;;;4989974;28;25053;-66
2021/08/10 00:54:33;;;;;;;10.40;4.50;;;16.20;99.90;;;;;;4987860;28;25076;-66
2021/08/10 00:56:59;;;;;;;10.77;4.30;;;16.20;99.90;;;;;;4987993;28;25091;-66
2021/08/10 00:59:25;;;;;;;7.00;3.85;;;16.10;99.90;;;;;;4988144;28;25113;-65
2021/08/10 01:01:52;;;;;;;12.13;4.70;;;16.20;99.90;;;;;;4988980;28;25064;-66
2021/08/10 01:04:17;;;;;;;10.18;3.88;;;16.20;99.90;;;;;;4989911;28;25082;-65
2021/08/10 01:07:32;;;;;;;9.95;4.70;;;16.20;99.90;;;;;;4984434;28;25074;-65
2021/08/10 01:10:21;;;;;;;12.40;4.03;;;16.10;99.90;;;;;;4988032;28;25138;-65
2021/08/10 01:13:22;;;;;;;7.30;4.20;;;16.20;99.90;;;;;;4990022;28;25060;-66
2021/08/10 01:15:58;;;;;;;8.77;3.95;;;16.20;99.90;;;;;;4988051;28;25053;-66
2021/08/10 01:18:33;;;;;;;12.75;4.22;;;16.30;99.90;;;;;;4988454;28;25122;-65
2021/08/10 01:21:25;;;;;;;13.68;4.28;;;16.30;99.90;;;;;;4985471;28;25073;-66
2021/08/10 01:24:17;;;;;;;13.68;4.35;;;16.30;99.90;;;;;;4986174;28;25138;-65
2021/08/10 01:27:04;;;;;;;10.87;4.13;;;16.30;99.90;;;;;;4987022;28;25069;-66
2021/08/10 01:29:45;;;;;;;14.05;4.32;;;16.30;99.90;;;;;;4984934;28;25076;-65
2021/08/10 01:32:11;;;;;;;11.93;4.63;;;16.30;99.90;;;;;;4987976;28;25058;-65
2021/08/10 01:34:43;;;;;;;12.32;4.40;;;16.30;99.90;;;;;;4987806;28;25078;-65
2021/08/10 01:37:12;;;;;;;15.60;4.53;;;16.30;99.90;;;;;;4986783;28;25082;-66
2021/08/10 01:39:40;;;;;;;12.23;4.93;;;16.30;99.90;;;;;;4987816;28;25174;-65
2021/08/10 01:42:07;;;;;;;10.65;4.68;;;16.20;99.90;;;;;;4986569;28;25061;-65
2021/08/10 01:44:35;;;;;;;15.32;5.57;;;16.10;99.90;;;;;;4994288;28;25135;-65
2021/08/10 01:47:07;;;;;;;10.30;4.55;;;16.10;99.90;;;;;;4992380;28;25076;-66
2021/08/10 01:49:35;;;;;;;8.50;4.35;;;16.00;99.90;;;;;;4987266;28;25129;-65
2021/08/10 01:52:03;;;;;;;10.88;4.55;;;16.00;99.90;;;;;;4986599;28;25129;-66
2021/08/10 01:54:30;;;;;;;10.90;4.47;;;16.00;99.90;;;;;;4988158;28;25081;-66
2021/08/10 01:56:55;;;;;;;9.10;4.40;;;16.00;99.90;;;;;;4987212;28;25054;-65
2021/08/10 01:59:22;;;;;;;12.77;4.70;;;16.00;99.90;;;;;;4986089;28;25126;-67
2021/08/10 02:01:49;;;;;;;5.75;4.35;;;16.10;99.90;;;;;;4987118;28;25051;-66
2021/08/10 02:04:18;;;;;;;9.15;4.38;;;16.10;99.90;;;;;;4986471;28;25132;-66
2021/08/10 02:06:46;;;;;;;10.82;4.72;;;16.10;99.90;;;;;;4987539;28;25094;-67
2021/08/10 02:09:14;;;;;;;9.75;5.05;;;16.10;99.90;;;;;;4986235;28;25062;-65
2021/08/10 02:11:39;;;;;;;6.45;3.80;;;16.10;99.90;;;;;;4987944;28;25071;-66
2021/08/10 02:14:08;;;;;;;8.32;4.00;;;16.00;99.90;;;;;;4987567;28;25073;-67
2021/08/10 02:16:34;;;;;;;14.45;4.82;;;16.00;99.90;;;;;;4992438;28;25120;-66
2021/08/10 02:19:00;;;;;;;10.90;4.53;;;16.00;99.90;;;;;;4987683;28;25086;-65
2021/08/10 02:21:30;;;;;;;13.65;4.18;;;16.00;99.90;;;;;;4985886;28;25149;-66
2021/08/10 02:24:03;;;;;;;10.90;3.80;;;16.10;99.90;;;;;;4997315;28;25082;-65
2021/08/10 02:26:31;;;;;;;11.23;4.43;;;16.00;99.90;;;;;;4986595;28;25097;-66
2021/08/10 02:28:58;;;;;;;9.95;4.45;;;16.00;99.90;;;;;;4978674;28;25065;-66
2021/08/10 02:31:26;;;;;;;13.57;4.10;;;16.00;99.90;;;;;;4988880;28;25078;-66
2021/08/10 02:33:52;;;;;;;11.95;4.45;;;16.00;99.90;;;;;;4985400;28;25130;-67
2021/08/10 02:36:19;;;;;;;11.30;4.13;;;16.00;99.90;;;;;;4981578;28;25066;-66
2021/08/10 02:38:45;;;;;;;14.63;5.18;;;16.00;99.90;;;;;;4986050;28;25080;-65
2021/08/10 02:41:11;;;;;;;5.00;3.45;;;15.90;99.90;;;;;;4985613;28;25137;-66
2021/08/10 02:43:40;;;;;;;7.28;4.18;;;15.90;99.90;;;;;;4987179;28;25089;-67
2021/08/10 02:46:05;;;;;;;14.98;4.70;;;15.90;99.90;;;;;;4981942;28;25130;-66
2021/08/10 02:48:32;;;;;;;10.07;3.80;;;15.90;99.90;;;;;;4991236;28;25112;-65
2021/08/10 02:50:58;;;;;;;10.88;3.90;;;15.90;99.90;;;;;;4985967;28;25133;-65
2021/08/10 02:53:24;;;;;;;7.80;3.67;;;15.80;99.90;;;;;;4986720;28;25113;-66
2021/08/10 02:56:09;;;;;;;10.18;4.10;;;15.90;99.90;;;;;;4986707;28;25186;-66
2021/08/10 02:58:42;;;;;;;10.60;4.60;;;15.90;99.90;;;;;;4987316;28;25078;-65
2021/08/10 03:01:12;;;;;;;12.18;4.45;;;15.80;99.90;;;;;;4987621;28;25079;-65
2021/08/10 03:03:38;;;;;;;6.38;4.00;;;15.90;99.90;;;;;;4988625;28;25056;-65
2021/08/10 03:06:07;;;;;;;7.03;3.88;;;15.90;99.90;;;;;;4990535;28;25110;-66
2021/08/10 03:08:35;;;;;;;11.77;4.45;;;15.90;99.90;;;;;;4986850;28;25068;-67
2021/08/10 03:11:04;;;;;;;10.18;4.28;;;15.80;99.90;;;;;;4986544;28;25097;-66
2021/08/10 03:13:38;;;;;;;10.40;4.32;;;15.90;99.90;;;;;;4985896;28;25131;-65
2021/08/10 03:16:06;;;;;;;15.45;4.90;;;15.80;99.90;;;;;;4986530;28;25117;-66
2021/08/10 03:18:36;;;;;;;11.77;4.38;;;15.80;99.90;;;;;;4983196;28;25084;-66
2021/08/10 03:21:04;;;;;;;16.35;5.10;;;15.70;99.90;;;;;;4986652;28;25081;-66
2021/08/10 03:23:35;;;;;;;9.35;4.75;;;15.70;99.90;;;;;;4985343;28;25071;-65
2021/08/10 03:26:03;;;;;;;20.65;4.97;;;15.70;99.90;;;;;;4989595;28;25129;-65
2021/08/10 03:28:29;;;;;;;12.15;5.65;;;15.70;99.90;;;;;;4990197;28;25143;-66
2021/08/10 03:30:57;;;;;;;11.18;4.93;;;15.70;99.90;;;;;;4991037;28;25061;-66
2021/08/10 03:33:26;;;;;;;10.63;5.43;;;15.60;99.90;;;;;;4990110;28;25083;-66
2021/08/10 03:35:52;;;;;;;12.55;5.03;;;15.60;99.90;;;;;;4991116;28;25145;-65
2021/08/10 03:38:19;;;;;;;12.35;5.90;;;15.70;99.90;;;;;;4988852;28;25160;-66
2021/08/10 03:40:45;;;;;;;11.88;5.43;;;15.60;99.90;;;;;;4989654;28;25093;-65
2021/08/10 03:43:11;;;;;;;18.48;4.95;;;15.60;99.90;;;;;;4989164;28;25073;-66
2021/08/10 03:45:37;;;;;;;21.27;5.57;;;15.60;99.90;;;;;;4989368;28;25106;-66
2021/08/10 03:48:04;;;;;;;13.88;6.00;;;15.50;99.90;;;;;;4989486;28;25056;-66
2021/08/10 03:50:30;;;;;;;13.93;6.43;;;15.50;99.90;;;;;;4989485;28;25113;-65
2021/08/10 03:52:56;;;;;;;10.38;5.68;;;15.50;99.90;;;;;;4989159;28;25070;-65
2021/08/10 03:55:22;;;;;;;9.48;6.15;;;15.40;99.90;;;;;;4989304;28;25071;-64
2021/08/10 03:57:49;;;;;;;10.25;6.32;;;15.40;99.90;;;;;;4987791;28;25050;-66
2021/08/10 04:00:16;;;;;;;24.55;7.30;;;15.40;99.90;;;;;;4990515;28;25152;-66
2021/08/10 04:02:43;;;;;;;14.70;7.18;;;15.40;99.90;;;;;;4989849;28;25052;-65
2021/08/10 04:05:09;;;;;;;11.93;6.40;;;15.30;99.90;;;;;;4990504;28;25109;-65
2021/08/10 04:07:35;;;;;;;14.60;6.53;;;15.30;99.90;;;;;;4991174;28;25075;-66
2021/08/10 04:10:03;;;;;;;14.10;6.63;;;15.20;99.90;;;;;;4990306;28;25097;-66
2021/08/10 04:12:29;;;;;;;11.10;6.40;;;15.20;99.90;;;;;;4989987;28;25082;-66
2021/08/10 04:14:54;;;;;;;17.45;6.15;;;15.20;99.90;;;;;;4988190;28;25054;-65
2021/08/10 04:17:23;;;;;;;20.02;6.90;;;15.20;99.90;;;;;;4989734;28;25086;-66
2021/08/10 04:19:52;;;;;;;16.65;7.15;;;15.30;99.90;;;;;;4987736;28;25054;-65
2021/08/10 04:22:19;;;;;;;15.40;6.20;;;15.30;99.90;;;;;;4988637;28;25146;-66
2021/08/10 04:24:45;;;;;;;16.60;6.45;;;15.30;99.90;;;;;;4988304;28;25081;-65
2021/08/10 04:27:12;;;;;;;15.05;6.22;;;15.30;99.90;;;;;;4988202;28;25067;-68
2021/08/10 04:29:38;;;;;;;18.67;6.65;;;15.20;99.90;;;;;;4988689;28;25125;-65
2021/08/10 04:32:05;;;;;;;11.07;6.22;;;15.20;99.90;;;;;;4988669;28;25128;-66
2021/08/10 04:34:30;;;;;;;15.10;5.55;;;15.10;99.90;;;;;;4987991;28;25080;-68
2021/08/10 04:36:56;;;;;;;17.48;6.57;;;15.20;99.90;;;;;;4987986;28;25141;-65
2021/08/10 04:39:23;;;;;;;12.52;5.78;;;15.20;99.90;;;;;;4984887;28;25064;-65
2021/08/10 04:41:49;;;;;;;11.75;5.72;;;15.20;99.90;;;;;;4990248;28;25053;-65
2021/08/10 04:44:14;;;;;;;13.57;5.43;;;15.20;99.90;;;;;;4988031;28;25082;-67
2021/08/10 04:46:40;;;;;;;17.95;6.10;;;15.30;99.90;;;;;;4987954;28;25061;-65
2021/08/10 04:49:06;;;;;;;13.65;5.53;;;15.30;99.90;;;;;;4987518;28;25049;-65
2021/08/10 04:51:32;;;;;;;12.23;6.47;;;15.40;99.90;;;;;;4988024;28;25095;-64
2021/08/10 04:53:58;;;;;;;14.02;6.90;;;15.30;99.90;;;;;;4988273;28;25074;-66
2021/08/10 04:56:23;;;;;;;16.77;6.68;;;15.30;99.90;;;;;;4989725;28;25168;-65
2021/08/10 04:58:49;;;;;;;10.45;6.60;;;15.30;99.90;;;;;;4989129;28;25074;-68
2021/08/10 05:01:14;;;;;;;16.48;5.82;;;15.40;99.90;;;;;;4991164;28;25077;-66
2021/08/10 05:03:40;;;;;;;11.48;5.53;;;15.50;99.90;;;;;;4992036;28;25080;-66
2021/08/10 05:06:06;;;;;;;7.13;4.60;;;15.50;99.90;;;;;;4990689;28;25057;-65
2021/08/10 05:08:32;;;;;;;9.43;5.63;;;15.60;99.90;;;;;;4987812;28;25080;-65
2021/08/10 05:10:58;;;;;;;9.90;5.88;;;15.60;99.90;;;;;;4987858;28;25085;-65
2021/08/10 05:13:24;;;;;;;11.95;5.03;;;15.70;99.90;;;;;;4986579;28;25148;-67
2021/08/10 05:15:50;;;;;;;11.65;5.40;;;15.70;99.90;;;;;;4989057;28;25077;-67
2021/08/10 05:18:16;;;;;;;11.20;5.70;;;15.70;99.90;;;;;;4989164;28;25046;-66
2021/08/10 05:20:41;;;;;;;13.20;5.10;;;15.80;99.90;;;;;;4984141;28;25164;-66
2021/08/10 05:23:07;;;;;;;13.27;5.82;;;15.80;99.90;;;;;;4993168;28;25068;-65
2021/08/10 05:25:32;;;;;;;12.02;5.20;;;15.80;99.90;;;;;;5003010;28;25081;-65
2021/08/10 05:27:58;;;;;;;9.25;5.47;;;15.80;99.90;;;;;;5007895;28;25076;-67
2021/08/10 05:30:24;;;;;;;9.23;4.97;;;15.80;99.90;;;;;;5006958;28;25058;-66
2021/08/10 05:32:51;;;;;;;15.20;5.38;;;15.80;99.90;;;;;;5006449;28;25100;-67
2021/08/10 05:35:17;;;;;;;16.05;4.95;;;15.90;99.90;;;;;;5003426;28;25072;-66
2021/08/10 05:37:43;;;;;;;16.83;5.47;;;15.90;99.90;;;;;;5017278;28;25077;-66
2021/08/10 05:40:09;;;;;;;13.32;5.45;;;16.00;99.90;;;;;;5003712;28;25058;-65
2021/08/10 05:42:34;;;;;;;10.68;5.18;;;16.00;99.90;;;;;;5001657;28;25064;-67
2021/08/10 05:45:00;;;;;;;16.50;5.38;;;15.90;99.90;;;;;;5003895;28;25058;-66
2021/08/10 05:47:25;;;;;;;12.40;5.22;;;15.90;99.90;;;;;;5002486;28;25087;-67
2021/08/10 05:49:51;;;;;;;11.45;6.30;;;16.00;99.90;;;;;;5002118;28;25097;-66
2021/08/10 05:52:16;;;;;;;9.98;5.00;;;16.00;99.90;;;;;;5000458;28;25074;-67
2021/08/10 05:54:42;;;;;;;7.90;4.65;;;16.10;99.90;;;;;;5001150;28;25081;-65
2021/08/10 05:57:07;;;;;;;11.80;5.38;;;16.10;99.90;;;;;;5003032;28;25102;-66
2021/08/10 05:59:33;;;;;;;13.15;6.20;;;16.10;99.90;;;;;;4996655;28;25065;-67
2021/08/10 06:01:59;;;;;;;13.82;5.90;;;16.10;99.90;;;;;;4991873;28;25055;-68
2021/08/10 06:04:25;;;;;;;14.13;5.97;;;16.10;99.90;;;;;;4988897;28;25052;-66
2021/08/10 06:06:52;;;;;;;12.95;5.63;;;16.10;99.90;;;;;;4989503;28;25126;-65
2021/08/10 06:09:18;;;;;;;9.50;5.47;;;16.10;99.90;;;;;;4989078;28;25067;-67
2021/08/10 06:11:43;;;;;;;14.73;5.13;;;16.20;99.90;;;;;;4988425;28;25110;-67
2021/08/10 06:14:09;;;;;;;9.75;4.75;;;16.20;99.90;;;;;;4988558;28;25071;-66
2021/08/10 06:16:34;;;;;;;8.65;5.00;;;16.30;99.90;;;;;;4987370;28;25141;-66
2021/08/10 06:19:01;;;;;;;10.35;4.75;;;16.40;99.90;;;;;;4988007;28;25054;-65
2021/08/10 06:21:27;;;;;;;14.90;4.60;;;16.50;99.90;;;;;;4986294;28;25151;-65
2021/08/10 06:23:52;;;;;;;13.45;4.90;;;16.60;99.90;;;;;;4987289;28;25048;-66
2021/08/10 06:26:18;;;;;;;13.02;4.50;;;16.60;99.90;;;;;;4996834;28;25062;-67
2021/08/10 06:28:44;;;;;;;16.30;4.65;;;16.80;99.90;;;;;;4986767;28;25099;-66
2021/08/10 06:31:11;;;;;;;14.88;4.97;;;16.80;99.90;;;;;;4998067;28;25097;-65
2021/08/10 06:33:37;;;;;;;17.58;5.22;;;16.70;99.90;;;;;;4988702;28;25090;-67
2021/08/10 06:36:03;;;;;;;14.30;4.65;;;16.70;99.90;;;;;;4987968;28;25124;-66
2021/08/10 06:38:29;;;;;;;9.75;4.28;;;16.80;99.90;;;;;;4993746;28;25081;-67
2021/08/10 06:40:55;;;;;;;15.70;4.28;;;16.80;99.90;;;;;;4988823;28;25175;-66
2021/08/10 06:43:20;;;;;;;12.57;4.00;;;16.90;99.90;;;;;;4983873;28;25081;-67
2021/08/10 06:45:46;;;;;;;14.05;4.82;;;16.90;99.90;;;;;;4987185;28;25107;-66
2021/08/10 06:48:11;;;;;;;14.65;5.10;;;16.90;99.90;;;;;;4996415;28;25060;-68
2021/08/10 06:50:37;;;;;;;15.07;4.97;;;16.90;99.90;;;;;;4995881;28;25067;-66
2021/08/10 06:53:03;;;;;;;15.57;4.93;;;17.00;99.90;;;;;;4988193;28;25081;-66
2021/08/10 06:55:28;;;;;;;10.93;4.18;;;17.10;99.90;;;;;;4987363;28;25147;-67
2021/08/10 06:57:54;;;;;;;11.27;4.28;;;17.10;99.90;;;;;;4994365;28;25129;-67
2021/08/10 07:00:20;;;;;;;8.75;4.18;;;17.10;99.90;;;;;;4998117;28;25111;-68
2021/08/10 07:02:45;;;;;;;9.63;3.38;;;17.00;99.90;;;;;;4998150;28;25071;-67
2021/08/10 07:05:11;;;;;;;10.23;4.30;;;17.10;99.90;;;;;;4999064;28;25057;-67
2021/08/10 07:07:36;;;;;;;10.02;4.47;;;17.30;99.90;;;;;;4985436;28;25072;-67
2021/08/10 07:10:05;;;;;;;13.27;4.95;;;17.40;99.90;;;;;;4997130;28;25071;-66
2021/08/10 07:12:31;;;;;;;12.60;4.32;;;17.40;99.90;;;;;;4991336;28;25080;-66
2021/08/10 07:14:56;;;;;;;13.52;3.80;;;17.30;99.90;;;;;;4990757;28;25065;-67
2021/08/10 07:17:22;;;;;;;9.80;4.15;;;17.40;99.90;;;;;;4989556;28;25108;-67
2021/08/10 07:19:47;;;;;;;9.98;4.00;;;17.50;99.90;;;;;;4989953;28;25086;-66
2021/08/10 07:22:14;;;;;;;12.10;4.35;;;17.50;99.90;;;;;;4999552;28;25076;-67
2021/08/10 07:24:40;;;;;;;10.93;4.18;;;17.70;99.90;;;;;;5001624;28;25078;-67
2021/08/10 07:27:05;;;;;;;11.20;3.63;;;17.70;99.90;;;;;;4989786;28;25065;-65
2021/08/10 07:29:31;;;;;;;14.48;3.53;;;17.70;99.90;;;;;;5001338;28;25070;-67
2021/08/10 07:31:57;;;;;;;6.47;2.95;;;17.70;99.90;;;;;;4990896;28;25157;-67
2021/08/10 07:34:23;;;;;;;11.18;3.80;;;17.80;99.90;;;;;;4990132;28;25111;-67
2021/08/10 07:36:48;;;;;;;9.63;4.18;;;18.00;99.90;;;;;;5000869;28;25059;-66
2021/08/10 07:39:14;;;;;;;14.48;4.40;;;18.00;99.90;;;;;;4989682;28;25139;-68
2021/08/10 07:41:40;;;;;;;9.35;3.78;;;17.80;99.90;;;;;;4988776;28;25070;-66
2021/08/10 07:44:06;;;;;;;6.95;3.80;;;17.70;99.90;;;;;;4990184;28;25070;-68
2021/08/10 07:46:32;;;;;;;12.70;3.58;;;17.70;99.90;;;;;;4988904;28;25054;-66
2021/08/10 07:48:57;;;;;;;9.18;3.70;;;17.80;99.90;;;;;;4989793;28;25151;-67
2021/08/10 07:51:23;;;;;;;10.02;4.03;;;17.80;99.90;;;;;;4988885;28;25074;-67
2021/08/10 07:53:48;;;;;;;8.00;3.10;;;17.70;99.90;;;;;;4988667;28;25052;-66
2021/08/10 07:56:14;;;;;;;7.38;3.30;;;17.70;99.90;;;;;;4989823;28;25054;-66
2021/08/10 07:58:40;;;;;;;6.03;3.17;;;17.90;99.90;;;;;;4989375;28;25132;-66
2021/08/10 08:01:06;;;;;;;9.88;3.03;;;17.90;99.90;;;;;;4988350;28;25086;-67
2021/08/10 08:03:32;;;;;;;12.15;2.95;;;18.00;99.90;;;;;;4989847;28;25080;-67
2021/08/10 08:05:59;;;;;;;10.52;2.80;;;18.10;99.90;;;;;;4989071;28;25085;-66
2021/08/10 08:08:27;;;;;;;6.47;2.90;;;18.20;99.90;;;;;;4996635;28;25100;-67
2021/08/10 08:10:53;;;;;;;12.63;3.50;;;18.10;99.90;;;;;;4994689;28;25078;-67
2021/08/10 08:13:19;;;;;;;8.55;3.33;;;18.10;99.90;;;;;;4989386;28;25061;-67
2021/08/10 08:15:45;;;;;;;8.07;2.83;;;18.10;99.90;;;;;;4989328;28;25133;-67
2021/08/10 08:18:11;;;;;;;13.70;4.07;;;18.00;99.90;;;;;;4991314;28;25062;-67
2021/08/10 08:20:37;;;;;;;8.07;3.33;;;18.00;99.90;;;;;;4997050;28;25177;-67
2021/08/10 08:23:03;;;;;;;6.28;2.63;;;18.20;99.90;;;;;;4989267;28;25095;-68
2021/08/10 08:25:28;;;;;;;8.50;2.28;;;18.50;99.90;;;;;;4996378;28;25110;-67
2021/08/10 08:27:54;;;;;;;6.00;2.47;;;18.70;99.90;;;;;;5006741;28;25133;-68
2021/08/10 08:30:20;;;;;;;7.43;2.63;;;18.70;99.90;;;;;;4991255;28;25089;-70
2021/08/10 08:32:45;;;;;;;7.55;2.75;;;18.60;99.90;;;;;;5008251;28;25076;-67
2021/08/10 08:35:11;;;;;;;6.63;3.35;;;18.80;99.90;;;;;;4992191;28;25092;-67
2021/08/10 08:37:38;;;;;;;6.20;3.40;;;18.80;99.90;;;;;;4997419;28;25052;-67
2021/08/10 08:40:05;;;;;;;8.82;2.88;;;18.80;99.90;;;;;;4989816;28;25062;-69
2021/08/10 08:42:31;;;;;;;9.77;3.38;;;18.70;99.90;;;;;;4993820;28;25163;-68
2021/08/10 08:44:57;;;;;;;6.50;3.45;;;18.80;99.90;;;;;;4997920;28;25143;-68
2021/08/10 08:47:22;;;;;;;5.70;2.85;;;18.80;99.90;;;;;;4977050;28;25093;-67
2021/08/10 08:49:49;;;;;;;7.03;3.05;;;18.80;99.90;;;;;;4988584;28;25131;-68
2021/08/10 08:52:16;;;;;;;9.65;3.25;;;19.00;99.90;;;;;;4987956;28;25055;-67
2021/08/10 08:54:42;;;;;;;7.85;3.53;;;19.30;99.90;;;;;;4989454;28;25082;-68
2021/08/10 08:57:09;;;;;;;5.13;3.00;;;19.30;99.90;;;;;;4988629;28;25069;-68
2021/08/10 08:59:35;;;;;;;8.68;3.45;;;19.20;99.90;;;;;;4987579;28;25173;-67
2021/08/10 09:02:01;;;;;;;11.70;3.85;;;19.30;99.90;;;;;;4988727;28;25159;-67
2021/08/10 09:04:27;;;;;;;7.82;3.58;;;19.50;99.90;;;;;;4987104;28;25105;-68
2021/08/10 09:06:55;;;;;;;5.85;3.88;;;19.30;99.90;;;;;;4989196;28;25119;-66
2021/08/10 09:09:30;;;;;;;4.35;3.03;;;19.30;99.90;;;;;;4987252;28;25072;-68
2021/08/10 09:11:58;;;;;;;6.40;3.40;;;19.30;99.90;;;;;;4987427;28;25086;-67
2021/08/10 09:14:25;;;;;;;9.15;3.63;;;19.30;99.90;;;;;;4988370;28;25152;-67
2021/08/10 09:17:03;;;;;;;13.18;3.65;;;19.40;99.90;;;;;;4988313;28;25108;-66
2021/08/10 09:19:49;;;;;;;12.85;3.92;;;19.40;99.90;;;;;;4988455;28;25067;-66
2021/08/10 09:22:29;;;;;;;7.45;3.70;;;19.50;99.90;;;;;;4987206;28;25057;-68
2021/08/10 09:24:56;;;;;;;14.13;4.10;;;19.80;99.90;;;;;;4988947;28;25167;-67
2021/08/10 09:27:38;;;;;;;9.63;4.00;;;19.70;99.90;;;;;;4989022;28;25065;-68
2021/08/10 09:30:08;;;;;;;10.20;3.88;;;19.70;99.90;;;;;;4987701;28;25150;-68
2021/08/10 09:32:34;;;;;;;12.43;3.95;;;20.00;99.90;;;;;;4987824;28;25077;-68
2021/08/10 09:35:13;;;;;;;7.35;4.25;;;20.20;99.90;;;;;;4986554;28;25098;-69
2021/08/10 09:37:39;;;;;;;7.97;3.97;;;20.40;99.90;;;;;;4988453;28;25073;-67
2021/08/10 09:40:28;;;;;;;6.80;3.45;;;20.30;99.90;;;;;;4988837;28;25131;-69
2021/08/10 09:42:53;;;;;;;10.48;3.88;;;19.90;99.90;;;;;;4988406;28;25057;-67
2021/08/10 09:45:19;;;;;;;11.23;4.38;;;19.70;99.90;;;;;;4998147;28;25075;-67
2021/08/10 09:47:44;;;;;;;8.18;4.07;;;19.70;99.90;;;;;;4988226;28;25098;-66
2021/08/10 09:50:25;;;;;;;12.73;4.03;;;19.60;99.90;;;;;;4986204;28;25108;-68
2021/08/10 09:52:51;;;;;;;15.20;5.18;;;19.40;99.90;;;;;;4988014;28;25055;-68
2021/08/10 09:55:17;;;;;;;11.43;5.32;;;19.20;99.90;;;;;;4987257;28;25061;-68
2021/08/10 09:57:59;;;;;;;10.07;5.28;;;18.90;99.90;;;;;;4986085;28;25101;-69
2021/08/10 10:00:42;;;;;;;14.70;5.47;;;19.00;99.90;;;;;;4987499;28;25053;-68
2021/08/10 10:03:22;;;;;;;11.98;5.50;;;18.80;99.90;;;;;;4987906;28;25111;-69
2021/08/10 10:05:49;;;;;;;11.20;5.55;;;18.80;99.90;;;;;;4986135;28;25053;-68
2021/08/10 10:08:21;;;;;;;12.93;5.10;;;19.00;99.90;;;;;;4986557;28;25054;-68
2021/08/10 10:10:48;;;;;;;16.42;5.22;;;19.30;99.90;;;;;;4985869;28;25097;-67
2021/08/10 10:13:16;;;;;;;9.50;4.30;;;19.60;99.90;;;;;;4986758;28;25122;-68
2021/08/10 10:15:42;;;;;;;9.88;4.50;;;19.70;99.90;;;;;;4987395;28;25131;-68
2021/08/10 10:18:08;;;;;;;7.32;4.32;;;19.70;99.90;;;;;;4985549;28;25058;-68
2021/08/10 10:20:36;;;;;;;12.27;4.63;;;19.60;99.90;;;;;;4987230;28;25070;-69
2021/08/10 10:23:03;;;;;;;8.88;4.55;;;19.40;99.90;;;;;;4987258;28;25070;-68
2021/08/10 10:25:33;;;;;;;10.63;4.25;;;19.40;99.90;;;;;;4987535;28;25131;-67
2021/08/10 10:28:02;;;;;;;11.18;5.25;;;19.50;99.90;;;;;;4987147;28;25072;-67
2021/08/10 10:30:28;;;;;;;10.68;4.53;;;19.20;99.90;;;;;;4986932;28;25096;-68
2021/08/10 10:32:54;;;;;;;13.80;5.13;;;19.10;99.90;;;;;;4987130;28;25143;-67
2021/08/10 10:35:20;;;;;;;9.55;5.10;;;19.30;99.90;;;;;;4991097;28;25164;-68
2021/08/10 10:37:48;;;;;;;13.18;5.22;;;19.40;99.90;;;;;;4993837;28;25122;-68
2021/08/10 10:40:17;;;;;;;13.35;4.63;;;19.50;99.90;;;;;;4993101;28;25070;-68
2021/08/10 10:42:45;;;;;;;9.10;4.55;;;19.70;99.90;;;;;;4994227;28;25069;-67
2021/08/10 10:45:35;;;;;;;7.03;3.70;;;20.00;99.90;;;;;;4994146;28;25081;-70
2021/08/10 10:48:00;;;;;;;10.60;4.18;;;20.20;99.90;;;;;;4987119;28;25068;-67
2021/08/10 10:50:27;;;;;;;11.77;4.30;;;20.50;99.90;;;;;;4993355;28;25089;-68
2021/08/10 10:53:02;;;;;;;9.65;4.30;;;20.70;99.90;;;;;;4987555;28;25059;-68
2021/08/10 10:55:35;;;;;;;8.07;3.85;;;20.80;99.90;;;;;;4993914;28;25094;-69
2021/08/10 10:58:24;;;;;;;9.88;4.55;;;21.00;99.90;;;;;;4992288;28;25057;-69
2021/08/10 11:01:13;;;;;;;9.88;4.40;;;21.30;99.90;;;;;;4993474;28;25064;-66
2021/08/10 11:03:41;;;;;;;14.20;5.47;;;21.30;99.90;;;;;;4994066;28;25149;-67
2021/08/10 11:06:30;;;;;;;5.25;3.63;;;21.30;99.90;;;;;;4991293;28;25098;-67
2021/08/10 11:08:56;;;;;;;10.90;4.00;;;21.50;99.90;;;;;;4993751;28;25068;-68
2021/08/10 11:11:45;;;;;;;10.43;4.43;;;21.40;99.90;;;;;;4992478;28;25113;-66
2021/08/10 11:14:35;;;;;;;10.90;4.25;;;21.40;99.90;;;;;;4994003;28;25073;-69
2021/08/10 11:17:12;;;;;;;9.38;3.95;;;21.70;99.90;;;;;;4993801;28;25068;-69
2021/08/10 11:19:44;;;;;;;8.75;4.10;;;21.60;99.90;;;;;;4992745;28;25059;-67
2021/08/10 11:22:16;;;;;;;10.75;3.78;;;20.90;99.90;;;;;;4994792;28;25084;-68
2021/08/10 11:24:44;;;;;;;8.83;3.90;;;20.40;99.90;;;;;;4994275;28;25160;-69
2021/08/10 11:27:31;;;;;;;11.18;3.97;;;20.60;99.90;;;;;;4993964;28;25173;-67
2021/08/10 11:29:58;;;;;;;11.27;4.10;;;20.70;99.90;;;;;;4994250;28;25143;-67
2021/08/10 11:32:44;;;;;;;10.93;3.95;;;20.90;99.90;;;;;;4992904;28;25059;-67
2021/08/10 11:35:30;;;;;;;11.30;3.30;;;20.80;99.90;;;;;;4992590;28;25051;-68
2021/08/10 11:38:17;;;;;;;12.57;4.30;;;20.70;99.90;;;;;;4992595;28;25146;-68
2021/08/10 11:40:58;;;;;;;13.55;3.90;;;21.20;99.90;;;;;;4994263;28;25140;-69
2021/08/10 11:43:46;;;;;;;10.07;3.57;;;21.50;99.90;;;;;;4989641;28;25076;-68
2021/08/10 11:46:32;;;;;;;7.88;3.85;;;21.90;99.90;;;;;;4991221;28;25156;-69
2021/08/10 11:49:04;;;;;;;7.13;3.30;;;22.00;99.90;;;;;;4995236;28;25068;-69
2021/08/10 11:51:38;;;;;;;12.25;4.13;;;21.90;99.90;;;;;;4990872;28;25066;-69
2021/08/10 11:54:12;;;;;;;6.93;3.50;;;21.90;99.90;;;;;;4987028;28;25049;-67
2021/08/10 11:56:40;;;;;;;11.38;4.68;;;21.60;99.90;;;;;;4991161;28;25118;-68
2021/08/10 11:59:09;;;;;;;8.00;3.45;;;21.40;99.90;;;;;;4989643;28;25096;-68
2021/08/10 12:01:39;;;;;;;8.77;3.05;;;21.20;99.90;;;;;;4990443;28;25122;-68
2021/08/10 12:04:15;;;;;;;10.20;4.03;;;21.20;99.90;;;;;;4989091;28;25061;-69
2021/08/10 12:06:42;;;;;;;6.40;3.15;;;21.40;99.90;;;;;;4991042;28;25056;-69
2021/08/10 12:09:10;;;;;;;7.43;3.63;;;21.70;99.90;;;;;;4990763;28;25136;-67
2021/08/10 12:11:37;;;;;;;10.07;3.92;;;22.00;99.90;;;;;;4990056;28;25082;-68
2021/08/10 12:14:10;;;;;;;7.28;3.45;;;21.60;99.90;;;;;;4990187;28;25058;-68
2021/08/10 12:16:35;;;;;;;8.50;4.03;;;21.40;99.90;;;;;;4988579;28;25130;-69
2021/08/10 12:19:01;;;;;;;9.55;3.20;;;21.70;99.90;;;;;;4990396;28;25070;-69
2021/08/10 12:21:40;;;;;;;9.80;3.65;;;22.10;99.90;;;;;;4989403;28;25065;-68
2021/08/10 12:24:07;;;;;;;8.43;4.25;;;22.40;99.90;;;;;;4989758;28;25073;-68
2021/08/10 12:26:32;;;;;;;8.95;3.72;;;22.50;99.90;;;;;;4989073;28;25110;-68
2021/08/10 12:29:04;;;;;;;10.18;3.47;;;22.70;99.90;;;;;;4988868;28;25099;-68
2021/08/10 12:31:33;;;;;;;8.25;4.28;;;22.80;99.90;;;;;;4990287;28;25172;-68
2021/08/10 12:34:00;;;;;;;6.60;3.45;;;22.40;99.90;;;;;;4989743;28;25142;-67
2021/08/10 12:36:26;;;;;;;13.80;3.28;;;22.50;99.90;;;;;;4990172;28;25067;-69
2021/08/10 12:38:53;;;;;;;8.93;3.70;;;22.60;99.90;;;;;;4987947;28;25059;-69
2021/08/10 12:41:24;;;;;;;10.15;3.95;;;22.70;99.90;;;;;;4990614;28;25191;-67
2021/08/10 12:43:51;;;;;;;7.32;3.28;;;22.80;99.90;;;;;;4988791;28;25143;-69
2021/08/10 12:46:34;;;;;;;8.80;3.38;;;22.90;99.90;;;;;;4988361;28;25096;-69
2021/08/10 12:49:12;;;;;;;7.50;2.90;;;22.80;99.90;;;;;;4985211;28;25103;-68